Pagina principală
METAR-TAF:

METAR-TAF

Aeroporturi :

Bowers Field

Ellensburg, Washington, Statele Unite ale Americii

Latitudine: 47-02-01N, longitudine: 120-31-45W, elevație: 536 m

Observații meteo curente

Raportul a fost făcut în urmă cu 14 de minute, la 22:27 UTC
Vânt 15 kt de la Vest
Temperatură 14°C
Umiditate 44%
Presiune 1013 hPa
Vizibilitate: 16.1 km
Nori fragmentați la o înălțime de 7500 picior
Total acoperit la o înălțime de 10000 picior

METAR: KELN 162227Z AUTO 26015KT 10SM BKN075 OVC100 14/02 A2990 RMK AO2 WSHFT 2207 T01440017 $

Ora: 15:41 (22:41 UTC)


TAF: lipsă

Observații și prognoze meteo pentru peste 4.000 de aeroporturi (rapoarte METAR și TAF).

Stațiile disponibile sunt reprezentate pe hartă prin puncte galbene și roșii.

Țineți indicatorul mouse-ului pe punctul dorit pentru a vedea denumirea stației.

Apoi, faceți clic pentru a vedea observațiile și prognozele meteorologice.

Pentru a schimba harta: Pentru mărire, faceți clic pe butoanele verzi cu cruce neagră; pentru micșorare, pe butonul verde cu o liniuță; pentru hărți învecinate, pe săgețile verzi.


METAR-TAF: